sensor_id;sensor_type;location;lat;lon;timestamp;pressure;altitude;pressure_sealevel;temperature;humidity
40946;BME280;55635;50.264;11.918;2024-01-27T00:01:11;96922.88;;;5.80;85.48
40946;BME280;55635;50.264;11.918;2024-01-27T00:03:52;96929.19;;;5.88;85.38
40946;BME280;55635;50.264;11.918;2024-01-27T00:06:35;96925.97;;;5.96;85.04
40946;BME280;55635;50.264;11.918;2024-01-27T00:09:16;96934.66;;;5.96;85.01
40946;BME280;55635;50.264;11.918;2024-01-27T00:11:57;96928.16;;;5.69;86.29
40946;BME280;55635;50.264;11.918;2024-01-27T00:14:39;96944.53;;;5.61;86.81
40946;BME280;55635;50.264;11.918;2024-01-27T00:17:20;96945.28;;;5.41;87.74
40946;BME280;55635;50.264;11.918;2024-01-27T00:20:05;96943.63;;;5.40;87.90
40946;BME280;55635;50.264;11.918;2024-01-27T00:22:46;96946.72;;;5.34;88.06
40946;BME280;55635;50.264;11.918;2024-01-27T00:25:28;96956.28;;;5.35;88.33
40946;BME280;55635;50.264;11.918;2024-01-27T00:28:09;96947.78;;;5.20;88.24
40946;BME280;55635;50.264;11.918;2024-01-27T00:30:50;96956.75;;;5.18;88.65
40946;BME280;55635;50.264;11.918;2024-01-27T00:33:31;96961.78;;;5.10;89.66
40946;BME280;55635;50.264;11.918;2024-01-27T00:36:12;96967.84;;;4.99;89.90
40946;BME280;55635;50.264;11.918;2024-01-27T00:38:53;96973.50;;;5.17;88.80
40946;BME280;55635;50.264;11.918;2024-01-27T00:41:34;96978.34;;;4.88;89.40
40946;BME280;55635;50.264;11.918;2024-01-27T00:44:15;96980.66;;;5.04;88.67
40946;BME280;55635;50.264;11.918;2024-01-27T00:46:57;96973.72;;;5.03;87.90
40946;BME280;55635;50.264;11.918;2024-01-27T00:49:38;96974.56;;;4.92;87.34
40946;BME280;55635;50.264;11.918;2024-01-27T00:52:19;96977.88;;;4.94;87.09
40946;BME280;55635;50.264;11.918;2024-01-27T00:55:00;96965.97;;;5.01;85.82
40946;BME280;55635;50.264;11.918;2024-01-27T00:57:41;96974.63;;;4.79;84.24
40946;BME280;55635;50.264;11.918;2024-01-27T01:00:22;96971.75;;;4.71;82.79
40946;BME280;55635;50.264;11.918;2024-01-27T01:03:03;96974.78;;;4.89;81.42
40946;BME280;55635;50.264;11.918;2024-01-27T01:05:45;96977.50;;;4.87;80.72
40946;BME280;55635;50.264;11.918;2024-01-27T01:08:26;96969.28;;;5.03;80.56
40946;BME280;55635;50.264;11.918;2024-01-27T01:11:07;96970.81;;;4.83;80.87
40946;BME280;55635;50.264;11.918;2024-01-27T01:13:47;96976.09;;;4.94;80.89
40946;BME280;55635;50.264;11.918;2024-01-27T01:16:29;96984.22;;;5.14;79.91
40946;BME280;55635;50.264;11.918;2024-01-27T01:19:10;96976.72;;;4.98;80.33
40946;BME280;55635;50.264;11.918;2024-01-27T01:21:51;96972.75;;;5.04;80.58
40946;BME280;55635;50.264;11.918;2024-01-27T01:24:32;96962.13;;;5.05;80.01
40946;BME280;55635;50.264;11.918;2024-01-27T01:27:13;96974.31;;;4.95;80.54
40946;BME280;55635;50.264;11.918;2024-01-27T01:29:54;96974.41;;;4.93;81.02
40946;BME280;55635;50.264;11.918;2024-01-27T01:32:36;96977.88;;;4.94;81.13
40946;BME280;55635;50.264;11.918;2024-01-27T01:35:17;96977.88;;;4.83;81.47
40946;BME280;55635;50.264;11.918;2024-01-27T01:37:58;96971.28;;;4.77;81.29
40946;BME280;55635;50.264;11.918;2024-01-27T01:40:39;96975.72;;;4.88;81.19
40946;BME280;55635;50.264;11.918;2024-01-27T01:43:20;96977.97;;;4.81;81.38
40946;BME280;55635;50.264;11.918;2024-01-27T01:46:01;96974.63;;;4.79;81.21
40946;BME280;55635;50.264;11.918;2024-01-27T01:48:44;96978.19;;;4.67;81.61
40946;BME280;55635;50.264;11.918;2024-01-27T01:51:26;96979.38;;;4.74;81.63
40946;BME280;55635;50.264;11.918;2024-01-27T01:54:08;96984.69;;;4.51;82.89
40946;BME280;55635;50.264;11.918;2024-01-27T01:56:49;96990.94;;;4.61;82.83
40946;BME280;55635;50.264;11.918;2024-01-27T01:59:30;96988.41;;;4.59;83.24
40946;BME280;55635;50.264;11.918;2024-01-27T02:02:12;96995.56;;;4.46;84.59
40946;BME280;55635;50.264;11.918;2024-01-27T02:04:54;97002.41;;;4.60;84.47
40946;BME280;55635;50.264;11.918;2024-01-27T02:07:35;97006.81;;;4.59;84.74
40946;BME280;55635;50.264;11.918;2024-01-27T02:10:17;97015.28;;;4.52;84.84
40946;BME280;55635;50.264;11.918;2024-01-27T02:12:58;97017.13;;;4.38;86.40
40946;BME280;55635;50.264;11.918;2024-01-27T02:15:40;97028.69;;;4.36;86.98
40946;BME280;55635;50.264;11.918;2024-01-27T02:18:20;97019.41;;;4.43;86.32
40946;BME280;55635;50.264;11.918;2024-01-27T02:21:02;97034.72;;;4.49;86.14
40946;BME280;55635;50.264;11.918;2024-01-27T02:23:43;97024.06;;;4.39;86.21
40946;BME280;55635;50.264;11.918;2024-01-27T02:26:24;97032.25;;;4.35;86.50
40946;BME280;55635;50.264;11.918;2024-01-27T02:29:05;97038.28;;;4.24;87.83
40946;BME280;55635;50.264;11.918;2024-01-27T02:31:46;97039.38;;;4.22;88.44
40946;BME280;55635;50.264;11.918;2024-01-27T02:34:28;97038.41;;;4.23;88.84
40946;BME280;55635;50.264;11.918;2024-01-27T02:37:09;97046.63;;;4.18;89.32
40946;BME280;55635;50.264;11.918;2024-01-27T02:39:51;97046.63;;;4.18;90.21
40946;BME280;55635;50.264;11.918;2024-01-27T02:42:32;97045.16;;;4.14;90.43
40946;BME280;55635;50.264;11.918;2024-01-27T02:45:13;97040.56;;;4.05;90.38
40946;BME280;55635;50.264;11.918;2024-01-27T02:47:54;97036.59;;;4.00;91.01
40946;BME280;55635;50.264;11.918;2024-01-27T02:50:35;97044.47;;;4.00;90.97
40946;BME280;55635;50.264;11.918;2024-01-27T02:53:17;97051.69;;;4.09;90.46
40946;BME280;55635;50.264;11.918;2024-01-27T02:55:58;97058.38;;;4.13;90.25
40946;BME280;55635;50.264;11.918;2024-01-27T02:58:40;97054.00;;;4.01;91.15
40946;BME280;55635;50.264;11.918;2024-01-27T03:01:21;97052.97;;;4.03;91.06
40946;BME280;55635;50.264;11.918;2024-01-27T03:04:03;97057.56;;;4.12;90.80
40946;BME280;55635;50.264;11.918;2024-01-27T03:06:44;97070.56;;;4.14;90.55
40946;BME280;55635;50.264;11.918;2024-01-27T03:09:25;97063.84;;;4.10;90.81
40946;BME280;55635;50.264;11.918;2024-01-27T03:12:07;97076.25;;;4.08;90.81
40946;BME280;55635;50.264;11.918;2024-01-27T03:14:48;97069.88;;;3.99;91.07
40946;BME280;55635;50.264;11.918;2024-01-27T03:17:30;97070.63;;;3.89;91.52
40946;BME280;55635;50.264;11.918;2024-01-27T03:20:11;97072.72;;;3.96;92.04
40946;BME280;55635;50.264;11.918;2024-01-27T03:22:52;97071.16;;;3.81;92.21
40946;BME280;55635;50.264;11.918;2024-01-27T03:25:33;97070.84;;;3.85;92.24
40946;BME280;55635;50.264;11.918;2024-01-27T03:28:14;97075.78;;;3.77;92.70
40946;BME280;55635;50.264;11.918;2024-01-27T03:30:56;97075.28;;;3.72;92.75
40946;BME280;55635;50.264;11.918;2024-01-27T03:33:38;97076.84;;;3.75;92.57
40946;BME280;55635;50.264;11.918;2024-01-27T03:36:18;97076.88;;;3.62;93.13
40946;BME280;55635;50.264;11.918;2024-01-27T03:39:01;97068.28;;;3.60;92.83
40946;BME280;55635;50.264;11.918;2024-01-27T03:41:42;97078.22;;;3.55;93.08
40946;BME280;55635;50.264;11.918;2024-01-27T03:44:23;97071.09;;;3.57;92.80
40946;BME280;55635;50.264;11.918;2024-01-27T03:47:04;97082.97;;;3.50;92.95
40946;BME280;55635;50.264;11.918;2024-01-27T03:49:45;97089.13;;;3.49;92.40
40946;BME280;55635;50.264;11.918;2024-01-27T03:52:26;97094.59;;;3.46;92.38
40946;BME280;55635;50.264;11.918;2024-01-27T03:55:07;97096.91;;;3.38;91.89
40946;BME280;55635;50.264;11.918;2024-01-27T03:57:48;97102.78;;;3.54;91.26
40946;BME280;55635;50.264;11.918;2024-01-27T04:00:29;97103.28;;;3.47;91.64
40946;BME280;55635;50.264;11.918;2024-01-27T04:03:13;97105.50;;;3.53;90.82
40946;BME280;55635;50.264;11.918;2024-01-27T04:05:54;97113.28;;;3.54;90.10
40946;BME280;55635;50.264;11.918;2024-01-27T04:08:36;97124.69;;;3.53;89.97
40946;BME280;55635;50.264;11.918;2024-01-27T04:11:23;97131.28;;;3.46;90.32
40946;BME280;55635;50.264;11.918;2024-01-27T04:14:05;97136.66;;;3.45;90.22
40946;BME280;55635;50.264;11.918;2024-01-27T04:16:47;97140.53;;;3.39;90.22
40946;BME280;55635;50.264;11.918;2024-01-27T04:19:28;97134.97;;;3.56;88.91
40946;BME280;55635;50.264;11.918;2024-01-27T04:22:09;97136.97;;;3.53;88.31
40946;BME280;55635;50.264;11.918;2024-01-27T04:24:50;97137.16;;;3.62;87.68
40946;BME280;55635;50.264;11.918;2024-01-27T04:27:31;97143.06;;;3.78;87.41
40946;BME280;55635;50.264;11.918;2024-01-27T04:30:13;97135.47;;;3.61;87.81
40946;BME280;55635;50.264;11.918;2024-01-27T04:32:54;97138.22;;;3.72;86.99
40946;BME280;55635;50.264;11.918;2024-01-27T04:35:35;97146.59;;;3.65;86.56
40946;BME280;55635;50.264;11.918;2024-01-27T04:38:16;97144.41;;;3.71;86.47
40946;BME280;55635;50.264;11.918;2024-01-27T04:40:57;97150.06;;;3.91;85.50
40946;BME280;55635;50.264;11.918;2024-01-27T04:43:38;97145.34;;;3.70;85.64
40946;BME280;55635;50.264;11.918;2024-01-27T04:46:19;97141.88;;;3.82;85.48
40946;BME280;55635;50.264;11.918;2024-01-27T04:49:01;97154.47;;;3.90;84.83
40946;BME280;55635;50.264;11.918;2024-01-27T04:51:42;97149.31;;;3.89;84.55
40946;BME280;55635;50.264;11.918;2024-01-27T04:54:23;97149.63;;;3.97;83.82
40946;BME280;55635;50.264;11.918;2024-01-27T04:57:06;97149.44;;;4.00;83.76
40946;BME280;55635;50.264;11.918;2024-01-27T04:59:47;97149.53;;;3.85;83.36
40946;BME280;55635;50.264;11.918;2024-01-27T05:02:28;97145.47;;;3.81;83.69
40946;BME280;55635;50.264;11.918;2024-01-27T05:05:09;97151.72;;;3.92;83.93
40946;BME280;55635;50.264;11.918;2024-01-27T05:07:50;97151.34;;;3.72;84.56
40946;BME280;55635;50.264;11.918;2024-01-27T05:10:31;97159.72;;;3.65;85.09
40946;BME280;55635;50.264;11.918;2024-01-27T05:13:12;97158.56;;;3.81;84.62
40946;BME280;55635;50.264;11.918;2024-01-27T05:15:53;97158.56;;;3.81;83.93
40946;BME280;55635;50.264;11.918;2024-01-27T05:18:34;97153.41;;;3.80;84.04
40946;BME280;55635;50.264;11.918;2024-01-27T05:21:16;97160.88;;;3.73;84.51
40946;BME280;55635;50.264;11.918;2024-01-27T05:23:57;97161.50;;;3.77;84.29
40946;BME280;55635;50.264;11.918;2024-01-27T05:26:38;97154.38;;;3.54;85.30
40946;BME280;55635;50.264;11.918;2024-01-27T05:29:19;97160.06;;;3.60;85.32
40946;BME280;55635;50.264;11.918;2024-01-27T05:32:00;97172.63;;;3.55;85.48
40946;BME280;55635;50.264;11.918;2024-01-27T05:34:41;97168.34;;;3.54;85.74
40946;BME280;55635;50.264;11.918;2024-01-27T05:37:22;97167.50;;;3.54;85.84
40946;BME280;55635;50.264;11.918;2024-01-27T05:40:03;97176.06;;;3.56;86.42
40946;BME280;55635;50.264;11.918;2024-01-27T05:42:46;97177.22;;;3.64;86.17
40946;BME280;55635;50.264;11.918;2024-01-27T05:45:26;97188.78;;;3.74;85.51
40946;BME280;55635;50.264;11.918;2024-01-27T05:48:08;97180.47;;;3.55;85.86
40946;BME280;55635;50.264;11.918;2024-01-27T05:50:56;97170.94;;;3.54;85.42
40946;BME280;55635;50.264;11.918;2024-01-27T05:53:37;97181.22;;;3.45;86.35
40946;BME280;55635;50.264;11.918;2024-01-27T05:56:18;97187.38;;;3.31;87.26
40946;BME280;55635;50.264;11.918;2024-01-27T05:59:02;97184.25;;;3.39;86.73
40946;BME280;55635;50.264;11.918;2024-01-27T06:01:44;97184.22;;;3.26;86.98
40946;BME280;55635;50.264;11.918;2024-01-27T06:04:25;97190.72;;;3.20;87.83
40946;BME280;55635;50.264;11.918;2024-01-27T06:07:06;97200.88;;;3.25;87.48
40946;BME280;55635;50.264;11.918;2024-01-27T06:09:47;97194.78;;;3.12;87.62
40946;BME280;55635;50.264;11.918;2024-01-27T06:12:28;97191.81;;;3.04;88.13
40946;BME280;55635;50.264;11.918;2024-01-27T06:15:09;97187.41;;;3.04;86.97
40946;BME280;55635;50.264;11.918;2024-01-27T06:17:51;97181.03;;;2.82;87.88
40946;BME280;55635;50.264;11.918;2024-01-27T06:20:32;97200.72;;;2.74;89.27
40946;BME280;55635;50.264;11.918;2024-01-27T06:23:13;97195.13;;;2.66;90.40
40946;BME280;55635;50.264;11.918;2024-01-27T06:25:54;97193.94;;;2.58;90.86
40946;BME280;55635;50.264;11.918;2024-01-27T06:28:35;97204.97;;;2.63;90.75
40946;BME280;55635;50.264;11.918;2024-01-27T06:31:17;97218.00;;;2.77;90.66
40946;BME280;55635;50.264;11.918;2024-01-27T06:33:58;97226.72;;;2.78;90.45
40946;BME280;55635;50.264;11.918;2024-01-27T06:36:39;97228.69;;;2.74;90.46
40946;BME280;55635;50.264;11.918;2024-01-27T06:39:20;97227.97;;;2.85;89.92
40946;BME280;55635;50.264;11.918;2024-01-27T06:42:02;97245.13;;;2.90;89.45
40946;BME280;55635;50.264;11.918;2024-01-27T06:44:43;97248.34;;;2.94;89.12
40946;BME280;55635;50.264;11.918;2024-01-27T06:47:24;97241.44;;;2.93;89.15
40946;BME280;55635;50.264;11.918;2024-01-27T06:50:06;97243.09;;;2.81;89.69
40946;BME280;55635;50.264;11.918;2024-01-27T06:52:47;97238.25;;;3.02;89.05
40946;BME280;55635;50.264;11.918;2024-01-27T06:55:28;97244.13;;;3.05;88.99
40946;BME280;55635;50.264;11.918;2024-01-27T06:58:10;97242.91;;;2.97;88.66
40946;BME280;55635;50.264;11.918;2024-01-27T07:00:51;97248.06;;;2.98;88.70
40946;BME280;55635;50.264;11.918;2024-01-27T07:03:32;97242.19;;;2.95;88.57
40946;BME280;55635;50.264;11.918;2024-01-27T07:06:13;97235.22;;;2.81;89.50
40946;BME280;55635;50.264;11.918;2024-01-27T07:08:54;97245.66;;;2.95;89.01
40946;BME280;55635;50.264;11.918;2024-01-27T07:11:36;97246.69;;;2.93;89.06
40946;BME280;55635;50.264;11.918;2024-01-27T07:14:17;97245.53;;;2.97;89.51
40946;BME280;55635;50.264;11.918;2024-01-27T07:16:58;97244.59;;;2.98;89.76
40946;BME280;55635;50.264;11.918;2024-01-27T07:19:40;97246.78;;;3.18;88.76
40946;BME280;55635;50.264;11.918;2024-01-27T07:22:22;97240.34;;;3.36;87.89
40946;BME280;55635;50.264;11.918;2024-01-27T07:25:03;97238.13;;;3.43;88.03
40946;BME280;55635;50.264;11.918;2024-01-27T07:27:45;97248.59;;;3.69;87.50
40946;BME280;55635;50.264;11.918;2024-01-27T07:30:27;97247.56;;;3.97;85.92
40946;BME280;55635;50.264;11.918;2024-01-27T07:33:08;97249.66;;;4.17;85.25
40946;BME280;55635;50.264;11.918;2024-01-27T07:35:49;97241.34;;;4.36;84.61
40946;BME280;55635;50.264;11.918;2024-01-27T07:38:31;97235.59;;;4.18;84.86
40946;BME280;55635;50.264;11.918;2024-01-27T07:41:12;97234.31;;;4.11;85.17
40946;BME280;55635;50.264;11.918;2024-01-27T07:43:57;97240.13;;;4.65;84.83
40946;BME280;55635;50.264;11.918;2024-01-27T07:46:38;97238.88;;;4.94;82.95
40946;BME280;55635;50.264;11.918;2024-01-27T07:49:20;97234.69;;;4.92;82.19
40946;BME280;55635;50.264;11.918;2024-01-27T07:52:01;97233.19;;;5.01;82.01
40946;BME280;55635;50.264;11.918;2024-01-27T07:54:43;97232.91;;;5.40;81.00
40946;BME280;55635;50.264;11.918;2024-01-27T07:57:24;97235.31;;;5.78;80.63
40946;BME280;55635;50.264;11.918;2024-01-27T08:00:06;97223.66;;;6.04;78.20
40946;BME280;55635;50.264;11.918;2024-01-27T08:02:47;97235.72;;;6.18;78.13
40946;BME280;55635;50.264;11.918;2024-01-27T08:05:28;97231.19;;;6.09;76.87
40946;BME280;55635;50.264;11.918;2024-01-27T08:08:09;97227.69;;;6.86;75.75
40946;BME280;55635;50.264;11.918;2024-01-27T08:10:51;97228.19;;;7.23;74.82
40946;BME280;55635;50.264;11.918;2024-01-27T08:13:31;97238.59;;;8.29;74.61
40946;BME280;55635;50.264;11.918;2024-01-27T08:16:13;97226.53;;;7.74;72.42
40946;BME280;55635;50.264;11.918;2024-01-27T08:18:55;97235.84;;;6.94;74.50
40946;BME280;55635;50.264;11.918;2024-01-27T08:21:36;97240.59;;;8.37;75.15
40946;BME280;55635;50.264;11.918;2024-01-27T08:24:17;97227.00;;;7.79;71.10
40946;BME280;55635;50.264;11.918;2024-01-27T08:26:58;97237.38;;;8.63;70.03
40946;BME280;55635;50.264;11.918;2024-01-27T08:29:39;97230.66;;;8.08;69.81
40946;BME280;55635;50.264;11.918;2024-01-27T08:32:21;97238.31;;;8.11;71.92
40946;BME280;55635;50.264;11.918;2024-01-27T08:35:02;97236.72;;;7.79;71.34
40946;BME280;55635;50.264;11.918;2024-01-27T08:37:43;97246.88;;;9.25;68.92
40946;BME280;55635;50.264;11.918;2024-01-27T08:40:24;97245.09;;;9.73;65.46
40946;BME280;55635;50.264;11.918;2024-01-27T08:43:05;97249.25;;;10.33;63.85
40946;BME280;55635;50.264;11.918;2024-01-27T08:45:46;97244.28;;;10.58;62.31
40946;BME280;55635;50.264;11.918;2024-01-27T08:48:27;97236.44;;;11.38;60.98
40946;BME280;55635;50.264;11.918;2024-01-27T08:51:11;97242.47;;;12.11;60.47
40946;BME280;55635;50.264;11.918;2024-01-27T08:53:53;97246.19;;;12.43;58.96
40946;BME280;55635;50.264;11.918;2024-01-27T08:56:39;97244.94;;;12.55;55.53
40946;BME280;55635;50.264;11.918;2024-01-27T08:59:20;97244.66;;;13.42;54.36
40946;BME280;55635;50.264;11.918;2024-01-27T09:02:01;97243.09;;;14.38;54.87
40946;BME280;55635;50.264;11.918;2024-01-27T09:04:42;97257.56;;;13.13;52.83
40946;BME280;55635;50.264;11.918;2024-01-27T09:07:23;97251.00;;;12.66;51.87
40946;BME280;55635;50.264;11.918;2024-01-27T09:10:05;97251.94;;;12.31;51.55
40946;BME280;55635;50.264;11.918;2024-01-27T09:12:47;97253.09;;;10.49;52.88
40946;BME280;55635;50.264;11.918;2024-01-27T09:15:28;97260.06;;;11.14;56.05
40946;BME280;55635;50.264;11.918;2024-01-27T09:18:09;97251.00;;;11.96;53.96
40946;BME280;55635;50.264;11.918;2024-01-27T09:20:50;97245.50;;;12.16;51.67
40946;BME280;55635;50.264;11.918;2024-01-27T09:23:31;97262.72;;;11.86;52.24
40946;BME280;55635;50.264;11.918;2024-01-27T09:26:12;97251.63;;;12.60;49.80
40946;BME280;55635;50.264;11.918;2024-01-27T09:28:53;97257.22;;;13.08;51.59
40946;BME280;55635;50.264;11.918;2024-01-27T09:31:37;97260.16;;;12.45;49.83
40946;BME280;55635;50.264;11.918;2024-01-27T09:34:18;97264.41;;;11.60;51.77
40946;BME280;55635;50.264;11.918;2024-01-27T09:36:59;97269.75;;;11.32;53.61
40946;BME280;55635;50.264;11.918;2024-01-27T09:39:40;97274.81;;;10.62;53.52
40946;BME280;55635;50.264;11.918;2024-01-27T09:42:21;97281.00;;;10.53;56.23
40946;BME280;55635;50.264;11.918;2024-01-27T09:45:03;97286.63;;;9.92;55.67
40946;BME280;55635;50.264;11.918;2024-01-27T09:47:45;97294.31;;;9.07;60.45
40946;BME280;55635;50.264;11.918;2024-01-27T09:50:27;97289.41;;;9.62;58.58
40946;BME280;55635;50.264;11.918;2024-01-27T09:53:08;97286.91;;;9.79;57.22
40946;BME280;55635;50.264;11.918;2024-01-27T09:55:50;97291.78;;;10.03;57.06
40946;BME280;55635;50.264;11.918;2024-01-27T09:58:32;97292.78;;;9.83;56.92
40946;BME280;55635;50.264;11.918;2024-01-27T10:01:13;97296.13;;;9.85;56.63
40946;BME280;55635;50.264;11.918;2024-01-27T10:03:57;97312.56;;;9.98;57.08
40946;BME280;55635;50.264;11.918;2024-01-27T10:06:40;97309.19;;;9.39;58.74
40946;BME280;55635;50.264;11.918;2024-01-27T10:09:21;97312.66;;;8.99;61.04
40946;BME280;55635;50.264;11.918;2024-01-27T10:12:03;97314.59;;;8.97;63.80
40946;BME280;55635;50.264;11.918;2024-01-27T10:14:44;97317.44;;;7.18;67.36
40946;BME280;55635;50.264;11.918;2024-01-27T10:17:26;97310.28;;;6.75;69.81
40946;BME280;55635;50.264;11.918;2024-01-27T10:20:13;97328.47;;;6.56;72.53
40946;BME280;55635;50.264;11.918;2024-01-27T10:22:56;97323.78;;;7.15;70.37
40946;BME280;55635;50.264;11.918;2024-01-27T10:25:41;97331.31;;;6.97;70.50
40946;BME280;55635;50.264;11.918;2024-01-27T10:28:22;97335.06;;;6.95;70.83
40946;BME280;55635;50.264;11.918;2024-01-27T10:31:12;97321.66;;;8.15;67.02
40946;BME280;55635;50.264;11.918;2024-01-27T10:33:57;97311.44;;;8.73;65.20
40946;BME280;55635;50.264;11.918;2024-01-27T10:36:40;97317.25;;;8.26;66.13
40946;BME280;55635;50.264;11.918;2024-01-27T10:39:25;97320.53;;;7.23;70.09
40946;BME280;55635;50.264;11.918;2024-01-27T10:42:07;97312.06;;;8.56;66.64
40946;BME280;55635;50.264;11.918;2024-01-27T10:44:50;97307.31;;;8.80;64.24
40946;BME280;55635;50.264;11.918;2024-01-27T10:47:33;97312.03;;;8.77;63.07
40946;BME280;55635;50.264;11.918;2024-01-27T10:50:14;97302.94;;;7.55;68.74
40946;BME280;55635;50.264;11.918;2024-01-27T10:52:57;97295.13;;;8.38;66.45
40946;BME280;55635;50.264;11.918;2024-01-27T10:55:40;97306.41;;;8.70;66.10
40946;BME280;55635;50.264;11.918;2024-01-27T10:58:24;97306.63;;;9.27;62.94
40946;BME280;55635;50.264;11.918;2024-01-27T11:01:12;97304.91;;;10.33;60.41
40946;BME280;55635;50.264;11.918;2024-01-27T11:03:55;97303.94;;;10.25;60.49
40946;BME280;55635;50.264;11.918;2024-01-27T11:06:38;97297.22;;;8.95;62.75
40946;BME280;55635;50.264;11.918;2024-01-27T11:09:19;97294.75;;;8.10;66.00
40946;BME280;55635;50.264;11.918;2024-01-27T11:12:01;97321.59;;;7.20;68.67
40946;BME280;55635;50.264;11.918;2024-01-27T11:14:43;97318.06;;;8.88;65.08
40946;BME280;55635;50.264;11.918;2024-01-27T11:17:26;97318.31;;;10.22;60.24
40946;BME280;55635;50.264;11.918;2024-01-27T11:20:08;97303.06;;;10.44;57.68
40946;BME280;55635;50.264;11.918;2024-01-27T11:22:52;97301.97;;;11.20;56.44
40946;BME280;55635;50.264;11.918;2024-01-27T11:25:33;97304.47;;;11.21;54.93
40946;BME280;55635;50.264;11.918;2024-01-27T11:28:16;97300.63;;;11.61;55.56
40946;BME280;55635;50.264;11.918;2024-01-27T11:30:57;97295.88;;;11.10;55.21
40946;BME280;55635;50.264;11.918;2024-01-27T11:33:47;97316.78;;;10.20;57.35
40946;BME280;55635;50.264;11.918;2024-01-27T11:36:32;97308.84;;;10.20;58.27
40946;BME280;55635;50.264;11.918;2024-01-27T11:39:30;97297.50;;;9.89;58.23
40946;BME280;55635;50.264;11.918;2024-01-27T11:42:14;97318.81;;;9.49;61.22
40946;BME280;55635;50.264;11.918;2024-01-27T11:44:56;97317.13;;;11.10;56.27
40946;BME280;55635;50.264;11.918;2024-01-27T11:47:37;97318.88;;;11.46;55.78
40946;BME280;55635;50.264;11.918;2024-01-27T11:50:19;97312.22;;;11.60;55.44
40946;BME280;55635;50.264;11.918;2024-01-27T11:53:01;97305.44;;;11.75;53.85
40946;BME280;55635;50.264;11.918;2024-01-27T11:55:42;97298.88;;;12.40;51.56
40946;BME280;55635;50.264;11.918;2024-01-27T11:58:23;97265.59;;;12.36;53.36
40946;BME280;55635;50.264;11.918;2024-01-27T12:01:05;97278.03;;;11.47;52.62
40946;BME280;55635;50.264;11.918;2024-01-27T12:03:46;97309.84;;;11.12;55.16
40946;BME280;55635;50.264;11.918;2024-01-27T12:06:29;97312.06;;;11.43;56.13
40946;BME280;55635;50.264;11.918;2024-01-27T12:09:10;97298.00;;;11.78;53.92
40946;BME280;55635;50.264;11.918;2024-01-27T12:11:57;97308.94;;;11.93;53.46
40946;BME280;55635;50.264;11.918;2024-01-27T12:14:46;97287.13;;;11.72;53.30
40946;BME280;55635;50.264;11.918;2024-01-27T12:17:27;97283.06;;;11.95;52.86
40946;BME280;55635;50.264;11.918;2024-01-27T12:20:15;97279.25;;;11.97;52.60
40946;BME280;55635;50.264;11.918;2024-01-27T12:23:08;97293.84;;;11.48;54.65
40946;BME280;55635;50.264;11.918;2024-01-27T12:25:55;97295.00;;;11.19;53.26
40946;BME280;55635;50.264;11.918;2024-01-27T12:28:36;97286.84;;;12.10;54.17
40946;BME280;55635;50.264;11.918;2024-01-27T12:31:18;97295.94;;;12.25;51.91
40946;BME280;55635;50.264;11.918;2024-01-27T12:34:00;97293.63;;;11.15;55.43
40946;BME280;55635;50.264;11.918;2024-01-27T12:36:44;97284.06;;;11.67;54.09
40946;BME280;55635;50.264;11.918;2024-01-27T12:39:26;97283.81;;;11.70;53.46
40946;BME280;55635;50.264;11.918;2024-01-27T12:42:07;97295.28;;;9.94;57.28
40946;BME280;55635;50.264;11.918;2024-01-27T12:44:48;97278.03;;;11.02;54.87
40946;BME280;55635;50.264;11.918;2024-01-27T12:47:29;97280.16;;;11.88;52.83
40946;BME280;55635;50.264;11.918;2024-01-27T12:50:10;97279.34;;;12.31;53.43
40946;BME280;55635;50.264;11.918;2024-01-27T12:52:51;97295.66;;;11.48;53.43
40946;BME280;55635;50.264;11.918;2024-01-27T12:55:32;97276.00;;;11.14;54.19
40946;BME280;55635;50.264;11.918;2024-01-27T12:58:13;97268.25;;;11.65;51.99
40946;BME280;55635;50.264;11.918;2024-01-27T13:00:54;97286.84;;;12.10;52.27
40946;BME280;55635;50.264;11.918;2024-01-27T13:03:35;97276.94;;;12.02;51.95
40946;BME280;55635;50.264;11.918;2024-01-27T13:06:16;97279.56;;;11.94;50.95
40946;BME280;55635;50.264;11.918;2024-01-27T13:08:59;97279.34;;;11.61;53.12
40946;BME280;55635;50.264;11.918;2024-01-27T13:11:40;97276.56;;;10.80;54.90
40946;BME280;55635;50.264;11.918;2024-01-27T13:14:21;97271.03;;;11.01;54.25
40946;BME280;55635;50.264;11.918;2024-01-27T13:17:03;97266.09;;;12.14;53.35
40946;BME280;55635;50.264;11.918;2024-01-27T13:19:44;97272.06;;;11.45;53.80
40946;BME280;55635;50.264;11.918;2024-01-27T13:22:26;97269.94;;;11.48;52.87
40946;BME280;55635;50.264;11.918;2024-01-27T13:25:07;97279.28;;;10.61;55.10
40946;BME280;55635;50.264;11.918;2024-01-27T13:27:48;97266.97;;;11.52;54.28
40946;BME280;55635;50.264;11.918;2024-01-27T13:30:29;97274.16;;;10.97;53.49
40946;BME280;55635;50.264;11.918;2024-01-27T13:33:10;97270.13;;;10.83;54.94
40946;BME280;55635;50.264;11.918;2024-01-27T13:35:52;97263.06;;;11.56;54.02
40946;BME280;55635;50.264;11.918;2024-01-27T13:38:33;97261.66;;;11.34;52.46
40946;BME280;55635;50.264;11.918;2024-01-27T13:41:16;97260.00;;;10.69;56.50
40946;BME280;55635;50.264;11.918;2024-01-27T13:43:57;97266.28;;;8.55;61.99
40946;BME280;55635;50.264;11.918;2024-01-27T13:46:38;97274.38;;;9.53;58.09
40946;BME280;55635;50.264;11.918;2024-01-27T13:49:19;97277.84;;;9.82;57.45
40946;BME280;55635;50.264;11.918;2024-01-27T13:52:01;97279.69;;;9.72;57.58
40946;BME280;55635;50.264;11.918;2024-01-27T13:54:43;97276.47;;;9.78;57.50
40946;BME280;55635;50.264;11.918;2024-01-27T13:57:24;97281.16;;;9.46;58.41
40946;BME280;55635;50.264;11.918;2024-01-27T14:00:07;97288.41;;;9.34;59.42
40946;BME280;55635;50.264;11.918;2024-01-27T14:02:48;97284.56;;;8.38;62.80
40946;BME280;55635;50.264;11.918;2024-01-27T14:05:29;97298.34;;;9.11;60.31
40946;BME280;55635;50.264;11.918;2024-01-27T14:08:10;97293.56;;;8.56;61.71
40946;BME280;55635;50.264;11.918;2024-01-27T14:10:52;97303.72;;;8.60;62.29
40946;BME280;55635;50.264;11.918;2024-01-27T14:13:33;97298.53;;;8.80;61.12